Time;durP1;ratioP1;P1;durP2;ratioP2;P2;SDS_P1;SDS_P2;PMS_P1;PMS_P2;Temp;Humidity;BMP_temperature;BMP_pressure;BME280_temperature;BME280_humidity;BME280_pressure;Samples;Min_cycle;Max_cycle;Signal;HPM_P1;HPM_P2
2022/04/12 00:01:00;;;;;;;6.47;3.28;;;;;;;;;;4956898;28;20074;-57
2022/04/12 00:03:27;;;;;;;9.77;3.83;;;;;;;;;;4968568;28;20154;-54
2022/04/12 00:05:55;;;;;;;7.78;3.30;;;;;;;;;;4953888;28;20094;-59
2022/04/12 00:08:22;;;;;;;9.30;3.83;;;;;;;;;;4933668;29;20058;-59
2022/04/12 00:10:49;;;;;;;8.23;3.63;;;;;;;;;;4948839;28;20046;-58
2022/04/12 00:13:17;;;;;;;9.80;3.35;;;;;;;;;;4968354;28;20078;-58
2022/04/12 00:15:45;;;;;;;10.57;3.75;;;;;;;;;;4979492;28;20118;-58
2022/04/12 00:20:57;;;;;;;5.97;2.90;;;;;;;;;;4943233;28;20047;-55
2022/04/12 00:23:23;;;;;;;7.95;3.50;;;;;;;;;;4984263;28;20094;-57
2022/04/12 00:25:53;;;;;;;6.95;2.78;;;;;;;;;;4981651;28;20077;-57
2022/04/12 00:28:20;;;;;;;9.20;3.40;;;;;;;;;;4988527;28;20058;-57
2022/04/12 00:30:47;;;;;;;13.45;3.67;;;;;;;;;;4980656;28;20145;-59
2022/04/12 00:33:14;;;;;;;6.43;3.10;;;;;;;;;;4951989;28;20082;-58
2022/04/12 00:35:44;;;;;;;12.13;3.60;;;;;;;;;;4952349;28;20306;-57
2022/04/12 00:38:22;;;;;;;8.45;3.75;;;;;;;;;;4945155;28;20082;-57
2022/04/12 00:40:49;;;;;;;8.63;3.92;;;;;;;;;;4967755;28;20047;-57
2022/04/12 00:43:16;;;;;;;10.38;3.92;;;;;;;;;;4945223;28;20050;-60
2022/04/12 00:45:46;;;;;;;8.60;3.50;;;;;;;;;;4951698;28;20117;-60
2022/04/12 00:48:14;;;;;;;9.00;3.00;;;;;;;;;;4961212;28;20545;-58
2022/04/12 00:50:41;;;;;;;7.03;3.28;;;;;;;;;;4953411;28;20046;-54
2022/04/12 00:53:08;;;;;;;9.40;3.20;;;;;;;;;;4946538;28;20051;-56
2022/04/12 00:55:35;;;;;;;8.50;3.67;;;;;;;;;;4952306;28;20086;-57
2022/04/12 00:58:05;;;;;;;7.25;3.50;;;;;;;;;;4962666;28;20078;-55
2022/04/12 01:00:32;;;;;;;8.75;2.67;;;;;;;;;;4952564;28;20063;-54
2022/04/12 01:02:59;;;;;;;7.10;3.40;;;;;;;;;;4953145;28;20079;-58
2022/04/12 01:05:32;;;;;;;10.80;3.60;;;;;;;;;;4960743;28;20055;-55
2022/04/12 01:07:59;;;;;;;8.05;3.58;;;;;;;;;;4947041;28;20050;-55
2022/04/12 01:10:25;;;;;;;8.48;3.80;;;;;;;;;;4966603;28;20057;-59
2022/04/12 01:12:52;;;;;;;9.90;3.30;;;;;;;;;;4961218;28;20057;-55
2022/04/12 01:15:20;;;;;;;7.18;2.97;;;;;;;;;;4954185;28;20058;-57
2022/04/12 01:17:47;;;;;;;11.70;3.33;;;;;;;;;;4927272;28;20682;-58
2022/04/12 01:20:14;;;;;;;7.55;3.38;;;;;;;;;;4949317;28;20055;-56
2022/04/12 01:22:45;;;;;;;7.90;3.70;;;;;;;;;;4963697;28;20085;-56
2022/04/12 01:25:13;;;;;;;9.27;3.53;;;;;;;;;;4946196;29;20111;-57
2022/04/12 01:27:40;;;;;;;8.93;3.55;;;;;;;;;;4932777;29;20061;-56
2022/04/12 01:30:07;;;;;;;7.22;2.97;;;;;;;;;;4960179;28;20055;-58
2022/04/12 01:32:34;;;;;;;8.35;3.33;;;;;;;;;;4967472;28;20073;-60
2022/04/12 01:35:01;;;;;;;9.90;3.40;;;;;;;;;;4945819;28;20059;-61
2022/04/12 01:37:29;;;;;;;8.85;3.20;;;;;;;;;;4951639;28;20086;-56
2022/04/12 01:39:56;;;;;;;9.32;2.70;;;;;;;;;;4946350;28;20077;-56
2022/04/12 01:42:24;;;;;;;7.25;3.22;;;;;;;;;;4967595;28;20082;-57
2022/04/12 01:44:50;;;;;;;9.75;3.42;;;;;;;;;;4953493;28;20063;-54
2022/04/12 01:47:17;;;;;;;9.52;2.88;;;;;;;;;;4936329;29;20051;-58
2022/04/12 01:49:44;;;;;;;8.50;3.75;;;;;;;;;;4952028;28;20051;-58
2022/04/12 01:52:11;;;;;;;8.70;3.08;;;;;;;;;;4968536;28;20066;-58
2022/04/12 01:54:38;;;;;;;6.00;2.63;;;;;;;;;;4966084;28;20117;-54
2022/04/12 01:57:05;;;;;;;9.20;3.50;;;;;;;;;;4956616;28;20063;-57
2022/04/12 01:59:33;;;;;;;8.38;3.30;;;;;;;;;;4946850;28;20687;-56
2022/04/12 02:02:00;;;;;;;6.50;3.25;;;;;;;;;;4970772;28;20050;-56
2022/04/12 02:04:26;;;;;;;6.07;3.00;;;;;;;;;;4963929;28;20058;-55
2022/04/12 02:06:53;;;;;;;7.20;3.13;;;;;;;;;;4967346;28;20058;-55
2022/04/12 02:09:19;;;;;;;6.28;3.13;;;;;;;;;;4969978;28;20058;-57
2022/04/12 02:11:46;;;;;;;7.47;3.47;;;;;;;;;;4947711;28;20118;-54
2022/04/12 02:14:12;;;;;;;9.70;2.90;;;;;;;;;;4952349;28;20053;-54
2022/04/12 02:16:53;;;;;;;6.28;3.25;;;;;;;;;;4929588;29;20134;-58
2022/04/12 02:19:19;;;;;;;8.52;3.40;;;;;;;;;;4937939;29;20075;-53
2022/04/12 02:21:46;;;;;;;7.75;3.42;;;;;;;;;;4945252;28;20055;-55
2022/04/12 02:24:13;;;;;;;8.98;3.35;;;;;;;;;;4969991;28;20500;-56
2022/04/12 02:26:40;;;;;;;6.68;2.50;;;;;;;;;;4955236;28;20091;-58
2022/04/12 02:29:06;;;;;;;8.50;3.00;;;;;;;;;;4953305;28;20054;-58
2022/04/12 02:31:34;;;;;;;9.07;3.22;;;;;;;;;;4948544;28;20051;-56
2022/04/12 02:34:02;;;;;;;10.02;3.17;;;;;;;;;;4953824;28;20047;-56
2022/04/12 02:36:30;;;;;;;7.05;2.83;;;;;;;;;;4942884;28;20082;-54
2022/04/12 02:38:56;;;;;;;6.63;2.83;;;;;;;;;;4954441;28;20051;-56
2022/04/12 02:41:23;;;;;;;6.38;2.95;;;;;;;;;;4964272;28;20050;-54
2022/04/12 02:43:49;;;;;;;11.38;3.53;;;;;;;;;;4970077;28;20137;-57
2022/04/12 02:46:16;;;;;;;8.38;3.60;;;;;;;;;;4961667;28;20086;-53
2022/04/12 02:48:43;;;;;;;10.13;3.17;;;;;;;;;;4947977;28;20056;-56
2022/04/12 02:51:11;;;;;;;7.10;3.00;;;;;;;;;;4928230;28;20051;-54
2022/04/12 02:53:38;;;;;;;6.63;2.92;;;;;;;;;;4950290;29;20055;-55
2022/04/12 02:56:05;;;;;;;7.15;3.47;;;;;;;;;;4949776;28;20055;-57
2022/04/12 02:58:32;;;;;;;10.23;3.63;;;;;;;;;;4945975;28;20055;-60
2022/04/12 03:00:58;;;;;;;7.63;3.45;;;;;;;;;;4953830;28;20043;-60
2022/04/12 03:03:26;;;;;;;8.77;2.90;;;;;;;;;;4947435;28;20055;-60
2022/04/12 03:05:53;;;;;;;6.53;3.30;;;;;;;;;;4953300;28;20055;-57
2022/04/12 03:08:22;;;;;;;8.43;3.40;;;;;;;;;;4948157;28;20061;-56
2022/04/12 03:10:48;;;;;;;7.05;2.92;;;;;;;;;;4954095;28;20070;-60
2022/04/12 03:13:15;;;;;;;7.07;3.00;;;;;;;;;;4937325;28;20162;-58
2022/04/12 03:15:42;;;;;;;7.32;2.97;;;;;;;;;;4967488;28;20051;-60
2022/04/12 03:18:08;;;;;;;9.18;2.88;;;;;;;;;;4963131;28;20049;-56
2022/04/12 03:20:35;;;;;;;7.03;2.95;;;;;;;;;;4953461;28;20062;-58
2022/04/12 03:23:02;;;;;;;13.60;3.38;;;;;;;;;;4941587;28;20059;-58
2022/04/12 03:25:30;;;;;;;6.80;2.80;;;;;;;;;;4936866;28;20452;-55
2022/04/12 03:27:56;;;;;;;7.13;2.95;;;;;;;;;;4964254;28;20058;-58
2022/04/12 03:30:23;;;;;;;7.25;3.22;;;;;;;;;;4968546;28;20086;-61
2022/04/12 03:32:50;;;;;;;19.13;3.88;;;;;;;;;;4963692;28;20082;-59
2022/04/12 03:35:16;;;;;;;7.65;2.67;;;;;;;;;;4950264;29;20059;-57
2022/04/12 03:37:43;;;;;;;7.97;2.85;;;;;;;;;;4950244;29;20058;-56
2022/04/12 03:40:10;;;;;;;7.95;3.20;;;;;;;;;;4945967;28;20062;-53
2022/04/12 03:42:38;;;;;;;7.20;3.05;;;;;;;;;;4953653;28;20058;-57
2022/04/12 03:45:06;;;;;;;7.47;2.92;;;;;;;;;;4965368;28;20055;-55
2022/04/12 03:47:38;;;;;;;9.23;3.53;;;;;;;;;;4971865;28;20046;-59
2022/04/12 03:50:06;;;;;;;6.85;2.78;;;;;;;;;;4949248;28;20109;-58
2022/04/12 03:52:33;;;;;;;8.43;3.15;;;;;;;;;;4961033;28;20058;-56
2022/04/12 03:55:00;;;;;;;7.32;2.55;;;;;;;;;;4951915;28;20062;-55
2022/04/12 03:57:27;;;;;;;5.40;2.70;;;;;;;;;;4933930;29;20055;-57
2022/04/12 03:59:55;;;;;;;7.85;3.00;;;;;;;;;;4928881;28;20039;-55
2022/04/12 04:02:21;;;;;;;11.20;3.53;;;;;;;;;;4966432;28;20054;-57
2022/04/12 04:04:48;;;;;;;6.82;2.92;;;;;;;;;;4947656;28;20115;-57
2022/04/12 04:07:15;;;;;;;6.93;2.70;;;;;;;;;;4949812;28;20070;-57
2022/04/12 04:09:41;;;;;;;8.18;3.10;;;;;;;;;;4943737;28;20058;-57
2022/04/12 04:12:09;;;;;;;7.72;3.22;;;;;;;;;;4965028;28;20390;-54
2022/04/12 04:14:35;;;;;;;8.88;3.22;;;;;;;;;;4943582;28;20051;-52
2022/04/12 04:17:05;;;;;;;7.68;2.90;;;;;;;;;;4949241;29;20079;-55
2022/04/12 04:19:31;;;;;;;7.45;3.08;;;;;;;;;;4962295;28;20055;-57
2022/04/12 04:21:58;;;;;;;8.13;2.88;;;;;;;;;;4928255;29;20056;-55
2022/04/12 04:24:24;;;;;;;6.78;3.15;;;;;;;;;;4929403;29;20059;-55
2022/04/12 04:26:55;;;;;;;6.80;2.83;;;;;;;;;;4957771;28;20050;-59
2022/04/12 04:29:22;;;;;;;9.05;3.25;;;;;;;;;;4964551;28;20047;-57
2022/04/12 04:31:49;;;;;;;6.72;2.60;;;;;;;;;;4942415;28;20072;-61
2022/04/12 04:34:17;;;;;;;8.55;3.35;;;;;;;;;;4946452;29;20058;-62
2022/04/12 04:36:44;;;;;;;7.22;3.17;;;;;;;;;;4958920;28;20075;-62
2022/04/12 04:39:11;;;;;;;6.72;2.95;;;;;;;;;;4964813;28;20059;-63
2022/04/12 04:41:37;;;;;;;9.30;3.63;;;;;;;;;;4960426;28;20055;-57
2022/04/12 04:44:04;;;;;;;7.47;2.90;;;;;;;;;;4965068;28;20082;-60
2022/04/12 04:46:31;;;;;;;7.45;2.97;;;;;;;;;;4960757;28;20047;-56
2022/04/12 04:48:58;;;;;;;9.27;2.80;;;;;;;;;;4948833;29;20296;-58
2022/04/12 04:51:26;;;;;;;7.55;3.00;;;;;;;;;;4958860;28;20054;-57
2022/04/12 04:53:58;;;;;;;6.25;2.90;;;;;;;;;;4964598;28;20062;-61
2022/04/12 04:56:25;;;;;;;6.60;2.80;;;;;;;;;;4956208;28;20056;-57
2022/04/12 04:58:52;;;;;;;7.85;3.10;;;;;;;;;;4929433;29;20159;-58
2022/04/12 05:01:19;;;;;;;7.35;2.90;;;;;;;;;;4924978;29;20063;-61
2022/04/12 05:03:46;;;;;;;7.57;3.20;;;;;;;;;;4963791;28;20059;-57
2022/04/12 05:06:14;;;;;;;12.00;3.40;;;;;;;;;;4963656;28;20062;-56
2022/04/12 05:08:41;;;;;;;;;;;;;;;;;;4942213;28;20051;-59
2022/04/12 05:11:09;;;;;;;7.72;2.85;;;;;;;;;;4961660;28;20009;-58
2022/04/12 05:13:35;;;;;;;5.60;2.63;;;;;;;;;;4939678;28;20115;-52
2022/04/12 05:16:03;;;;;;;7.50;2.53;;;;;;;;;;4961545;28;20729;-58
2022/04/12 05:18:30;;;;;;;6.88;2.90;;;;;;;;;;4939416;28;20082;-57
2022/04/12 05:20:57;;;;;;;6.43;2.85;;;;;;;;;;4949307;28;20067;-57
2022/04/12 05:23:24;;;;;;;7.93;2.30;;;;;;;;;;4960620;28;20055;-55
2022/04/12 05:25:53;;;;;;;5.43;2.17;;;;;;;;;;4965868;28;20051;-53
2022/04/12 05:28:21;;;;;;;8.40;3.28;;;;;;;;;;4942655;28;20047;-57
2022/04/12 05:30:48;;;;;;;6.28;3.08;;;;;;;;;;4965877;28;20055;-52
2022/04/12 05:33:15;;;;;;;8.05;2.92;;;;;;;;;;4962729;28;20074;-56
2022/04/12 05:35:41;;;;;;;8.60;3.03;;;;;;;;;;4955335;28;20054;-57
2022/04/12 05:38:08;;;;;;;8.02;2.72;;;;;;;;;;4962477;28;20043;-58
2022/04/12 05:40:35;;;;;;;6.85;3.10;;;;;;;;;;4969533;28;20067;-57
2022/04/12 05:43:01;;;;;;;6.45;2.88;;;;;;;;;;4959304;28;20073;-60
2022/04/12 05:45:30;;;;;;;9.68;3.05;;;;;;;;;;4968161;28;20047;-54
2022/04/12 05:47:56;;;;;;;6.20;2.70;;;;;;;;;;4951529;28;20066;-54
2022/04/12 05:50:24;;;;;;;7.72;2.78;;;;;;;;;;4962437;28;20059;-57
2022/04/12 05:52:51;;;;;;;7.00;2.47;;;;;;;;;;4951910;28;20069;-58
2022/04/12 05:55:18;;;;;;;9.02;2.67;;;;;;;;;;4946794;28;20063;-56
2022/04/12 05:57:49;;;;;;;7.40;3.08;;;;;;;;;;4952757;29;20066;-57
2022/04/12 06:00:16;;;;;;;8.68;3.10;;;;;;;;;;4947039;28;20079;-58
2022/04/12 06:02:44;;;;;;;8.18;3.17;;;;;;;;;;4966473;28;20069;-57
2022/04/12 06:05:13;;;;;;;7.97;3.07;;;;;;;;;;4943940;28;20071;-57
2022/04/12 06:07:40;;;;;;;6.65;2.72;;;;;;;;;;4946303;28;20331;-57
2022/04/12 06:10:07;;;;;;;6.55;2.95;;;;;;;;;;4957377;28;20059;-60
2022/04/12 06:12:34;;;;;;;9.75;3.20;;;;;;;;;;4957177;28;20227;-56
2022/04/12 06:15:00;;;;;;;8.45;2.65;;;;;;;;;;4946765;28;20141;-57
2022/04/12 06:17:31;;;;;;;8.60;3.03;;;;;;;;;;4953279;28;20090;-57
2022/04/12 06:20:03;;;;;;;6.47;2.90;;;;;;;;;;4964343;28;20102;-55
2022/04/12 06:22:29;;;;;;;7.80;2.88;;;;;;;;;;4967122;28;20086;-60
2022/04/12 06:24:56;;;;;;;8.38;3.10;;;;;;;;;;4958702;28;20054;-55
2022/04/12 06:27:29;;;;;;;7.75;3.10;;;;;;;;;;4966069;28;20058;-54
2022/04/12 06:29:56;;;;;;;8.20;2.95;;;;;;;;;;4937323;28;20059;-57
2022/04/12 06:32:23;;;;;;;8.38;2.95;;;;;;;;;;4950774;28;20074;-56
2022/04/12 06:34:49;;;;;;;8.13;3.72;;;;;;;;;;4937983;28;20051;-58
2022/04/12 06:37:18;;;;;;;9.80;2.85;;;;;;;;;;4978740;28;20047;-59
2022/04/12 06:39:45;;;;;;;9.57;2.83;;;;;;;;;;4958974;28;20062;-57
2022/04/12 06:42:11;;;;;;;8.18;3.42;;;;;;;;;;4960032;28;20055;-59
2022/04/12 06:44:39;;;;;;;14.70;3.22;;;;;;;;;;4953183;28;20054;-54
2022/04/12 06:47:07;;;;;;;9.57;2.92;;;;;;;;;;4963207;28;20054;-56
2022/04/12 06:49:33;;;;;;;5.45;2.70;;;;;;;;;;4968561;28;20061;-57
2022/04/12 06:52:00;;;;;;;6.07;2.42;;;;;;;;;;4939015;28;20059;-60
2022/04/12 06:54:28;;;;;;;6.10;3.00;;;;;;;;;;4960693;28;20055;-57
2022/04/12 06:56:55;;;;;;;7.63;2.67;;;;;;;;;;4937220;28;20059;-54
2022/04/12 06:59:22;;;;;;;10.57;3.08;;;;;;;;;;4966017;28;20055;-59
2022/04/12 07:01:49;;;;;;;6.65;2.85;;;;;;;;;;4961485;28;20054;-59
2022/04/12 07:04:15;;;;;;;8.00;3.05;;;;;;;;;;4952644;28;20563;-57
2022/04/12 07:06:42;;;;;;;7.45;3.17;;;;;;;;;;4944393;28;20047;-58
2022/04/12 07:09:11;;;;;;;8.23;3.08;;;;;;;;;;4952053;28;20061;-58
2022/04/12 07:11:39;;;;;;;5.63;2.92;;;;;;;;;;4945105;28;20055;-57
2022/04/12 07:14:05;;;;;;;5.97;2.73;;;;;;;;;;4950420;28;20057;-53
2022/04/12 07:16:32;;;;;;;11.93;3.15;;;;;;;;;;4947947;28;20311;-60
2022/04/12 07:18:59;;;;;;;8.13;3.13;;;;;;;;;;4950275;28;20061;-56
2022/04/12 07:21:28;;;;;;;8.40;3.22;;;;;;;;;;4950244;28;20078;-60
2022/04/12 07:23:54;;;;;;;8.43;3.08;;;;;;;;;;4961400;28;20061;-61
2022/04/12 07:26:21;;;;;;;6.85;2.63;;;;;;;;;;4952070;28;20061;-60
2022/04/12 07:28:49;;;;;;;8.57;3.30;;;;;;;;;;4945765;28;20051;-61
2022/04/12 07:31:15;;;;;;;9.17;3.63;;;;;;;;;;4952598;28;20113;-59
2022/04/12 07:33:42;;;;;;;7.38;2.75;;;;;;;;;;4944161;28;20306;-59
2022/04/12 07:36:09;;;;;;;8.38;3.55;;;;;;;;;;4952242;28;20173;-59
2022/04/12 07:38:35;;;;;;;8.95;3.28;;;;;;;;;;4945207;28;20130;-58
2022/04/12 07:41:02;;;;;;;9.32;3.10;;;;;;;;;;4952071;28;20082;-52
2022/04/12 07:43:29;;;;;;;11.10;3.33;;;;;;;;;;4959898;28;20173;-61
2022/04/12 07:45:57;;;;;;;7.55;3.50;;;;;;;;;;4949962;28;20054;-59
2022/04/12 07:48:23;;;;;;;6.72;3.00;;;;;;;;;;4944392;28;20059;-57
2022/04/12 07:50:50;;;;;;;5.90;2.50;;;;;;;;;;4949147;28;20058;-57
2022/04/12 07:53:16;;;;;;;12.27;3.30;;;;;;;;;;4944103;28;20142;-58
2022/04/12 07:55:43;;;;;;;10.30;4.05;;;;;;;;;;4951389;28;20055;-53
2022/04/12 07:58:10;;;;;;;9.82;2.35;;;;;;;;;;4946877;28;20061;-58
2022/04/12 08:00:36;;;;;;;8.60;3.78;;;;;;;;;;4964090;28;20050;-58
2022/04/12 08:03:05;;;;;;;7.38;3.17;;;;;;;;;;4948866;28;20046;-57
2022/04/12 08:05:33;;;;;;;4.82;2.38;;;;;;;;;;4959164;28;20069;-58
2022/04/12 08:07:59;;;;;;;8.75;3.83;;;;;;;;;;4944659;28;20121;-58
2022/04/12 08:10:26;;;;;;;9.07;3.97;;;;;;;;;;4942390;28;20038;-57
2022/04/12 08:12:53;;;;;;;7.70;3.10;;;;;;;;;;4929745;28;20137;-55
2022/04/12 08:15:23;;;;;;;12.48;4.18;;;;;;;;;;4926763;28;20083;-53
2022/04/12 08:17:49;;;;;;;11.68;3.72;;;;;;;;;;4935691;28;20079;-57
2022/04/12 08:20:17;;;;;;;7.88;3.55;;;;;;;;;;4933659;28;20063;-55
2022/04/12 08:22:44;;;;;;;8.25;3.25;;;;;;;;;;4946748;28;20064;-58
2022/04/12 08:25:11;;;;;;;10.18;3.63;;;;;;;;;;4934124;28;20055;-59
2022/04/12 08:27:38;;;;;;;8.82;3.78;;;;;;;;;;4938488;28;20074;-57
2022/04/12 08:30:06;;;;;;;11.18;4.45;;;;;;;;;;4933762;28;20078;-58
2022/04/12 08:32:33;;;;;;;;;;;;;;;;;;4935485;29;20055;-61
2022/04/12 08:34:59;;;;;;;9.95;3.13;;;;;;;;;;4927927;28;20013;-56
2022/04/12 08:37:28;;;;;;;9.65;3.60;;;;;;;;;;4954336;28;20084;-58
2022/04/12 08:39:54;;;;;;;8.27;3.50;;;;;;;;;;4934005;28;20055;-58
2022/04/12 08:42:21;;;;;;;8.10;3.42;;;;;;;;;;4955271;28;20059;-54
2022/04/12 08:44:48;;;;;;;13.88;4.10;;;;;;;;;;4941681;28;20135;-58
2022/04/12 08:47:17;;;;;;;9.10;3.90;;;;;;;;;;4931044;28;20054;-55
2022/04/12 08:49:44;;;;;;;7.35;3.53;;;;;;;;;;4937652;28;20055;-56
2022/04/12 08:52:11;;;;;;;10.40;4.15;;;;;;;;;;4932420;28;20055;-53
2022/04/12 08:54:39;;;;;;;9.85;3.67;;;;;;;;;;4943669;28;20074;-58
2022/04/12 08:57:08;;;;;;;8.55;3.95;;;;;;;;;;4934127;28;20063;-56
2022/04/12 08:59:35;;;;;;;8.18;3.78;;;;;;;;;;4936616;28;20113;-58
2022/04/12 09:02:01;;;;;;;9.63;4.28;;;;;;;;;;4935437;28;20050;-63
2022/04/12 09:04:29;;;;;;;11.32;3.03;;;;;;;;;;4949084;28;20111;-53
2022/04/12 09:06:58;;;;;;;10.23;3.72;;;;;;;;;;4941504;28;20083;-57
2022/04/12 09:09:25;;;;;;;8.18;3.47;;;;;;;;;;4927168;29;20094;-57
2022/04/12 09:12:00;;;;;;;9.45;3.53;;;;;;;;;;4942317;28;20071;-57
2022/04/12 09:14:36;;;;;;;8.15;3.28;;;;;;;;;;4931218;29;20055;-54
2022/04/12 09:17:02;;;;;;;10.10;4.15;;;;;;;;;;4923401;29;20054;-53
2022/04/12 09:19:39;;;;;;;9.85;4.03;;;;;;;;;;4931232;29;20075;-58
2022/04/12 09:22:10;;;;;;;12.00;3.65;;;;;;;;;;4925089;29;20059;-58
2022/04/12 09:24:40;;;;;;;11.90;3.80;;;;;;;;;;4947311;29;20051;-57
2022/04/12 09:27:13;;;;;;;8.48;3.58;;;;;;;;;;4924535;28;20082;-58
2022/04/12 09:29:43;;;;;;;8.77;3.60;;;;;;;;;;4947637;29;20141;-61
2022/04/12 09:32:13;;;;;;;8.60;3.85;;;;;;;;;;4941761;28;20062;-57
2022/04/12 09:34:40;;;;;;;8.57;4.00;;;;;;;;;;4947563;29;20051;-61
2022/04/12 09:37:16;;;;;;;9.07;4.28;;;;;;;;;;4926841;28;20086;-57
2022/04/12 09:39:42;;;;;;;7.10;3.72;;;;;;;;;;4928896;29;20059;-58
2022/04/12 09:42:10;;;;;;;10.70;4.07;;;;;;;;;;4931746;29;20043;-58
2022/04/12 09:44:38;;;;;;;11.13;4.50;;;;;;;;;;4939998;28;20043;-59
2022/04/12 09:47:05;;;;;;;12.18;4.22;;;;;;;;;;4947199;29;20054;-54
2022/04/12 09:49:42;;;;;;;9.15;3.95;;;;;;;;;;4939654;28;20161;-61
2022/04/12 09:52:09;;;;;;;8.23;3.83;;;;;;;;;;4946578;29;20138;-58
2022/04/12 09:54:36;;;;;;;8.43;3.95;;;;;;;;;;4923972;29;20059;-56
2022/04/12 09:57:04;;;;;;;8.65;4.28;;;;;;;;;;4947270;28;20126;-57
2022/04/12 09:59:32;;;;;;;13.20;4.53;;;;;;;;;;4937379;28;20079;-59
2022/04/12 10:02:01;;;;;;;8.68;3.97;;;;;;;;;;4938867;28;20981;-59
2022/04/12 10:04:29;;;;;;;7.13;3.35;;;;;;;;;;4909126;29;20070;-63
2022/04/12 10:06:57;;;;;;;8.43;3.95;;;;;;;;;;4930624;28;20051;-58
2022/04/12 10:09:24;;;;;;;7.88;3.80;;;;;;;;;;4962055;28;20121;-57
2022/04/12 10:11:50;;;;;;;7.63;3.90;;;;;;;;;;4953305;28;20066;-60
2022/04/12 10:14:17;;;;;;;7.70;3.67;;;;;;;;;;4947254;28;20058;-57
2022/04/12 10:16:44;;;;;;;9.38;3.28;;;;;;;;;;4969161;28;20082;-57
2022/04/12 10:19:12;;;;;;;10.13;3.97;;;;;;;;;;4961121;28;20051;-61
2022/04/12 10:21:39;;;;;;;12.57;3.33;;;;;;;;;;4952221;28;20046;-60
2022/04/12 10:24:07;;;;;;;9.93;3.08;;;;;;;;;;4960166;28;20066;-61
2022/04/12 10:26:34;;;;;;;7.45;3.22;;;;;;;;;;4956456;28;20059;-61
2022/04/12 10:29:04;;;;;;;8.43;3.35;;;;;;;;;;4942352;28;20054;-60
2022/04/12 10:31:31;;;;;;;7.38;2.72;;;;;;;;;;4938903;28;20050;-57
2022/04/12 10:34:05;;;;;;;12.85;3.42;;;;;;;;;;4952487;28;20051;-62
2022/04/12 10:36:51;;;;;;;8.15;3.03;;;;;;;;;;4963373;28;20050;-61
2022/04/12 10:39:19;;;;;;;9.27;2.95;;;;;;;;;;4966526;28;20066;-59
2022/04/12 10:41:47;;;;;;;9.35;3.25;;;;;;;;;;4978623;28;20043;-58
2022/04/12 10:44:19;;;;;;;7.60;3.10;;;;;;;;;;4943238;28;20106;-59
2022/04/12 10:46:47;;;;;;;7.97;3.10;;;;;;;;;;4934205;28;20051;-58
2022/04/12 10:49:13;;;;;;;7.77;2.63;;;;;;;;;;4963325;28;20050;-61
2022/04/12 10:51:40;;;;;;;9.20;3.55;;;;;;;;;;4949106;28;20051;-59
2022/04/12 10:54:07;;;;;;;7.68;3.03;;;;;;;;;;4945494;28;20527;-62
2022/04/12 10:56:36;;;;;;;7.38;2.90;;;;;;;;;;4952843;28;20062;-55
2022/04/12 10:59:02;;;;;;;7.38;2.95;;;;;;;;;;4943873;28;20055;-60
2022/04/12 11:01:30;;;;;;;6.60;2.90;;;;;;;;;;4946194;28;20050;-63
2022/04/12 11:03:57;;;;;;;8.90;2.92;;;;;;;;;;4951611;28;20054;-64
2022/04/12 11:06:24;;;;;;;8.18;2.95;;;;;;;;;;4946372;28;20083;-56
2022/04/12 11:08:52;;;;;;;8.05;3.00;;;;;;;;;;4939893;28;20066;-62
2022/04/12 11:11:28;;;;;;;8.60;2.85;;;;;;;;;;4952318;28;20056;-58
2022/04/12 11:14:17;;;;;;;10.30;3.60;;;;;;;;;;4939552;28;20082;-62
2022/04/12 11:16:49;;;;;;;9.90;3.08;;;;;;;;;;4934153;28;20067;-59
2022/04/12 11:19:20;;;;;;;8.75;2.90;;;;;;;;;;4939289;28;20059;-60
2022/04/12 11:22:02;;;;;;;7.10;2.97;;;;;;;;;;4947890;28;20082;-59
2022/04/12 11:24:29;;;;;;;10.63;3.03;;;;;;;;;;4954674;28;20055;-57
2022/04/12 11:27:04;;;;;;;8.50;3.35;;;;;;;;;;4932864;28;20079;-59
2022/04/12 11:29:32;;;;;;;9.23;2.95;;;;;;;;;;4952066;28;20064;-58
2022/04/12 11:31:59;;;;;;;8.73;2.75;;;;;;;;;;4948448;28;20048;-59
2022/04/12 11:34:45;;;;;;;8.65;2.70;;;;;;;;;;5087743;27;20414;-58
2022/04/12 11:37:13;;;;;;;5.72;2.08;;;;;;;;;;5057112;28;20059;-57
2022/04/12 11:39:41;;;;;;;6.10;2.10;;;;;;;;;;5047263;28;20679;-60
2022/04/12 11:42:08;;;;;;;6.18;2.58;;;;;;;;;;5032193;28;20080;-60
2022/04/12 11:44:35;;;;;;;7.32;2.70;;;;;;;;;;5052024;28;20061;-58
2022/04/12 11:47:02;;;;;;;5.00;2.05;;;;;;;;;;5030785;28;20107;-63
2022/04/12 11:49:29;;;;;;;9.52;2.45;;;;;;;;;;5021014;28;20060;-62
2022/04/12 11:51:58;;;;;;;8.98;2.47;;;;;;;;;;5044571;28;20053;-61
2022/04/12 11:54:26;;;;;;;6.57;2.28;;;;;;;;;;5052037;28;20150;-62
2022/04/12 11:57:04;;;;;;;9.30;2.53;;;;;;;;;;5047545;28;20088;-59
2022/04/12 11:59:31;;;;;;;6.20;2.53;;;;;;;;;;5040673;28;20057;-62
2022/04/12 12:01:59;;;;;;;7.18;2.83;;;;;;;;;;5048507;28;20079;-60
2022/04/12 12:04:29;;;;;;;11.82;3.13;;;;;;;;;;5040027;28;20053;-65
2022/04/12 12:06:59;;;;;;;7.15;2.60;;;;;;;;;;5046228;28;20053;-61
2022/04/12 12:09:26;;;;;;;7.78;2.80;;;;;;;;;;5040976;28;20057;-63
2022/04/12 12:11:52;;;;;;;8.27;3.20;;;;;;;;;;5062868;28;20056;-58
2022/04/12 12:14:20;;;;;;;7.53;2.80;;;;;;;;;;5056822;28;20048;-62
2022/04/12 12:17:03;;;;;;;9.40;3.08;;;;;;;;;;5044628;28;20060;-57
2022/04/12 12:19:33;;;;;;;8.35;2.55;;;;;;;;;;5037435;28;20057;-62
2022/04/12 12:22:01;;;;;;;7.35;3.13;;;;;;;;;;5063263;28;20080;-60
2022/04/12 12:24:28;;;;;;;9.63;3.60;;;;;;;;;;5040624;28;20060;-63
2022/04/12 12:26:55;;;;;;;8.75;3.35;;;;;;;;;;5046688;28;20076;-62
2022/04/12 12:29:23;;;;;;;8.10;3.15;;;;;;;;;;5040187;28;20148;-64
2022/04/12 12:31:49;;;;;;;9.55;3.30;;;;;;;;;;5062172;28;20065;-62
2022/04/12 12:34:28;;;;;;;10.50;3.72;;;;;;;;;;5036392;28;20098;-61
2022/04/12 12:37:08;;;;;;;8.40;3.45;;;;;;;;;;5059223;28;20049;-59
2022/04/12 12:39:39;;;;;;;11.55;3.70;;;;;;;;;;5070436;28;20056;-59
2022/04/12 12:42:06;;;;;;;9.55;3.20;;;;;;;;;;5059379;28;20068;-57
2022/04/12 12:44:33;;;;;;;8.32;3.45;;;;;;;;;;5030945;28;20061;-57
2022/04/12 12:47:04;;;;;;;8.52;3.72;;;;;;;;;;5029365;28;20057;-60
2022/04/12 12:49:37;;;;;;;9.77;3.40;;;;;;;;;;5060665;28;20057;-57
2022/04/12 12:52:05;;;;;;;10.23;3.55;;;;;;;;;;5060877;28;20053;-59
2022/04/12 12:54:33;;;;;;;11.43;3.05;;;;;;;;;;5027700;28;20051;-62
2022/04/12 12:57:01;;;;;;;10.07;3.22;;;;;;;;;;5022916;28;20092;-62
2022/04/12 12:59:31;;;;;;;9.95;3.40;;;;;;;;;;5028861;28;20053;-58
2022/04/12 13:01:58;;;;;;;9.43;3.08;;;;;;;;;;5023064;28;20057;-59
2022/04/12 13:04:27;;;;;;;8.05;2.85;;;;;;;;;;5027345;28;20148;-59
2022/04/12 13:06:54;;;;;;;;;;;;;;;;;;5021760;28;20064;-58
2022/04/12 13:09:23;;;;;;;7.85;2.90;;;;;;;;;;5045037;28;19959;-60
2022/04/12 13:11:51;;;;;;;7.13;2.80;;;;;;;;;;5021394;28;20049;-59
2022/04/12 13:14:17;;;;;;;7.95;3.38;;;;;;;;;;5027444;28;20055;-64
2022/04/12 13:16:45;;;;;;;9.25;3.33;;;;;;;;;;5022478;28;20057;-60
2022/04/12 13:19:11;;;;;;;10.57;3.47;;;;;;;;;;5027800;28;20076;-60
2022/04/12 13:21:38;;;;;;;8.98;3.00;;;;;;;;;;5021614;28;20134;-60
2022/04/12 13:24:05;;;;;;;9.95;3.50;;;;;;;;;;5028365;28;20064;-62
2022/04/12 13:26:32;;;;;;;9.18;3.42;;;;;;;;;;5022593;28;20144;-58
2022/04/12 13:28:59;;;;;;;8.73;3.05;;;;;;;;;;5028048;28;20049;-60
2022/04/12 13:31:26;;;;;;;7.88;3.22;;;;;;;;;;5023031;28;20063;-63
2022/04/12 13:33:52;;;;;;;10.18;2.97;;;;;;;;;;5027718;28;20150;-62
2022/04/12 13:36:20;;;;;;;10.50;3.30;;;;;;;;;;5030048;28;20069;-64
2022/04/12 13:38:46;;;;;;;7.32;2.42;;;;;;;;;;5022338;28;20047;-67
2022/04/12 13:41:13;;;;;;;11.07;3.00;;;;;;;;;;5027689;28;20055;-64
2022/04/12 13:43:39;;;;;;;9.95;3.20;;;;;;;;;;5020132;28;20065;-64
2022/04/12 13:46:08;;;;;;;13.27;3.00;;;;;;;;;;5027976;28;20057;-57
2022/04/12 13:48:36;;;;;;;8.52;2.55;;;;;;;;;;5021852;28;20115;-59
2022/04/12 13:51:03;;;;;;;8.68;2.42;;;;;;;;;;5042268;28;20136;-60
2022/04/12 13:53:29;;;;;;;8.98;2.83;;;;;;;;;;5037492;28;20053;-61
2022/04/12 13:55:56;;;;;;;6.72;2.53;;;;;;;;;;5026172;28;20045;-57
2022/04/12 13:58:23;;;;;;;10.25;2.78;;;;;;;;;;5021677;28;20047;-60
2022/04/12 14:00:49;;;;;;;11.07;3.28;;;;;;;;;;5027435;28;20052;-61
2022/04/12 14:03:17;;;;;;;5.35;2.28;;;;;;;;;;5019371;28;20041;-58
2022/04/12 14:05:46;;;;;;;11.73;3.15;;;;;;;;;;5022904;28;20097;-60
2022/04/12 14:08:13;;;;;;;;;;;;;;;;;;5021114;28;20136;-61
2022/04/12 14:10:40;;;;;;;5.88;2.63;;;;;;;;;;5027737;28;19925;-60
2022/04/12 14:13:06;;;;;;;8.88;2.95;;;;;;;;;;5017690;28;20050;-57
2022/04/12 14:15:34;;;;;;;9.57;3.42;;;;;;;;;;5043884;28;20146;-57
2022/04/12 14:18:01;;;;;;;8.27;3.03;;;;;;;;;;5025814;28;20061;-60
2022/04/12 14:20:29;;;;;;;9.77;3.15;;;;;;;;;;5024742;28;20061;-61
2022/04/12 14:22:55;;;;;;;6.25;2.35;;;;;;;;;;5027375;28;20060;-57
2022/04/12 14:25:23;;;;;;;6.68;2.70;;;;;;;;;;5021173;28;20060;-59
2022/04/12 14:27:49;;;;;;;8.32;2.78;;;;;;;;;;5018300;28;20098;-59
2022/04/12 14:30:16;;;;;;;7.72;2.42;;;;;;;;;;5020969;28;20132;-59
2022/04/12 14:32:42;;;;;;;12.25;3.78;;;;;;;;;;5026896;28;20127;-61
2022/04/12 14:35:09;;;;;;;10.38;2.92;;;;;;;;;;5052302;28;20060;-64
2022/04/12 14:37:37;;;;;;;12.95;3.78;;;;;;;;;;5027105;28;20060;-57
2022/04/12 14:40:05;;;;;;;9.18;3.15;;;;;;;;;;5020428;28;20121;-59
2022/04/12 14:42:31;;;;;;;13.07;3.47;;;;;;;;;;5022560;28;20069;-61
2022/04/12 14:44:58;;;;;;;12.93;3.40;;;;;;;;;;5019429;28;20136;-56
2022/04/12 14:47:25;;;;;;;12.65;3.47;;;;;;;;;;5025545;28;20064;-58
2022/04/12 14:49:51;;;;;;;9.50;3.38;;;;;;;;;;5020808;28;20136;-57